aviador You're here:

PATO Decoded Metar

PORTAGE GLACIER in AK, USA
Report Time2017-11-23 21:53:00
UTC Time2017-11-23 22:04:34
Flight Rules mvfr MVFR
Wind270° at 03 kt
W.Rank270° ranks 10
Current wind is below 270° avg. (7.3)
Visibility9999 m
Phenomena:N/A
Clouds:Broken 012 Hf
Expected CloudBase > 800 ft AGL from Temp-Dew spread
Ceiling1,200 ft
Temp-9°C (ISA -24)
Dew Point-11°C (86% RH)
AAT-13.2°C
QNH991 hPa
Density Alt-2,067 ft
Elevation102 ft
Report Wrong Elevation
Raw Report
PATO 232153Z AUTO 27003KT 10SM BKN012 M09/M11 A2927 RMK AO2 SLP912
T10891111 TSNO=

Extra information for PATO:More info

Metar Taf Metar & Taf Last 4 Metars F.Rules Stats Wind Profile Meteogram Temp Stats Airport Information Weather charts Add Link Nearby VenuesMetar ALERT Operation Metar Decoded Social comments

AIRNAV info for PATO